createdAt,value
2023-03-05T00:01:35.348Z,4.35
2023-03-05T00:04:03.762Z,3.67
2023-03-05T00:06:31.996Z,3.42
2023-03-05T00:08:59.029Z,3.83
2023-03-05T00:11:30.079Z,5.40
2023-03-05T00:13:58.414Z,4.65
2023-03-05T00:16:26.904Z,5.43
2023-03-05T00:18:55.518Z,4.30
2023-03-05T00:21:26.217Z,4.20
2023-03-05T00:23:53.575Z,4.40
2023-03-05T00:26:23.222Z,4.82
2023-03-05T00:28:51.765Z,4.93
2023-03-05T00:31:21.802Z,5.47
2023-03-05T00:33:55.444Z,4.20
2023-03-05T00:36:22.274Z,5.22
2023-03-05T00:38:48.970Z,6.53
2023-03-05T00:41:15.568Z,4.07
2023-03-05T00:43:42.280Z,4.82
2023-03-05T00:46:08.940Z,3.45
2023-03-05T00:48:35.619Z,4.65
2023-03-05T00:51:02.666Z,3.83
2023-03-05T00:53:29.365Z,4.40
2023-03-05T00:55:55.895Z,4.65
2023-03-05T00:58:22.687Z,5.20
2023-03-05T01:00:50.798Z,4.18
2023-03-05T01:03:18.586Z,4.13
2023-03-05T01:05:45.266Z,3.93
2023-03-05T01:08:11.900Z,7.15
2023-03-05T01:10:38.939Z,4.00
2023-03-05T01:13:05.515Z,4.38
2023-03-05T01:15:32.200Z,4.47
2023-03-05T01:17:58.764Z,4.07
2023-03-05T01:20:25.394Z,3.83
2023-03-05T01:22:52.057Z,3.83
2023-03-05T01:25:19.114Z,3.67
2023-03-05T01:27:45.930Z,3.92
2023-03-05T01:30:14.417Z,6.07
2023-03-05T01:32:41.268Z,4.28
2023-03-05T01:35:08.653Z,3.55
2023-03-05T01:37:35.210Z,4.10
2023-03-05T01:40:01.808Z,4.43
2023-03-05T01:42:28.379Z,3.77
2023-03-05T01:45:02.811Z,4.60
2023-03-05T01:47:29.745Z,3.97
2023-03-05T01:49:56.838Z,5.57
2023-03-05T01:52:25.340Z,4.80
2023-03-05T01:55:01.106Z,3.43
2023-03-05T01:57:37.640Z,4.50
2023-03-05T02:00:13.460Z,4.70
2023-03-05T02:02:41.850Z,4.72
2023-03-05T02:05:16.366Z,4.50
2023-03-05T02:07:45.154Z,2.80
2023-03-05T02:10:30.832Z,3.85
2023-03-05T02:13:00.880Z,3.92
2023-03-05T02:15:28.302Z,3.67
2023-03-05T02:17:54.939Z,4.43
2023-03-05T02:20:28.224Z,3.77
2023-03-05T02:22:54.781Z,3.95
2023-03-05T02:25:27.636Z,3.53
2023-03-05T02:28:12.115Z,4.38
2023-03-05T02:30:38.672Z,3.78
2023-03-05T02:33:05.510Z,3.63
2023-03-05T02:35:32.257Z,3.47
2023-03-05T02:37:58.945Z,3.40
2023-03-05T02:40:25.665Z,4.60
2023-03-05T02:42:52.246Z,4.75
2023-03-05T02:45:19.063Z,3.93
2023-03-05T02:47:45.772Z,3.88
2023-03-05T02:50:12.872Z,3.10
2023-03-05T02:52:40.354Z,3.80
2023-03-05T02:55:07.480Z,4.18
2023-03-05T02:57:34.013Z,3.07
2023-03-05T03:00:00.780Z,5.03
2023-03-05T03:02:27.360Z,3.72
2023-03-05T03:04:53.971Z,3.95
2023-03-05T03:07:20.545Z,4.18
2023-03-05T03:09:47.133Z,3.63
2023-03-05T03:12:13.691Z,3.30
2023-03-05T03:14:42.600Z,4.95
2023-03-05T03:17:11.764Z,3.47
2023-03-05T03:19:38.473Z,3.50
2023-03-05T03:22:06.351Z,3.90
2023-03-05T03:24:33.636Z,3.30
2023-03-05T03:27:00.904Z,5.20
2023-03-05T03:29:27.820Z,3.25
2023-03-05T03:31:54.339Z,3.58
2023-03-05T03:34:21.333Z,3.27
2023-03-05T03:36:49.412Z,3.30
2023-03-05T03:39:16.439Z,4.20
2023-03-05T03:41:48.438Z,3.50
2023-03-05T03:44:17.945Z,4.15
2023-03-05T03:46:48.799Z,3.63
2023-03-05T03:49:22.701Z,6.50
2023-03-05T03:51:50.817Z,3.90
2023-03-05T03:54:18.408Z,3.45
2023-03-05T03:56:45.188Z,3.20
2023-03-05T03:59:12.378Z,4.53
2023-03-05T04:01:39.357Z,3.88
2023-03-05T04:04:06.556Z,3.13
2023-03-05T04:06:33.657Z,3.55
2023-03-05T04:09:00.629Z,3.75
2023-03-05T04:11:27.181Z,3.23
2023-03-05T04:13:53.766Z,3.90
2023-03-05T04:16:20.526Z,3.42
2023-03-05T04:18:47.426Z,3.75
2023-03-05T04:21:14.082Z,2.60
2023-03-05T04:23:40.784Z,4.50
2023-03-05T04:26:07.594Z,2.67
2023-03-05T04:28:34.149Z,2.95
2023-03-05T04:31:00.769Z,3.97
2023-03-05T04:33:27.308Z,4.03
2023-03-05T04:35:53.862Z,2.53
2023-03-05T04:38:20.447Z,3.33
2023-03-05T04:40:47.443Z,3.33
2023-03-05T04:43:14.101Z,3.53
2023-03-05T04:45:42.862Z,2.97
2023-03-05T04:48:10.723Z,2.50
2023-03-05T04:50:37.865Z,2.63
2023-03-05T04:53:04.768Z,3.13
2023-03-05T04:55:31.608Z,3.05
2023-03-05T04:57:58.572Z,2.70
2023-03-05T05:00:25.507Z,1.90
2023-03-05T05:02:53.117Z,2.90
2023-03-05T05:05:26.689Z,2.22
2023-03-05T05:07:57.804Z,2.90
2023-03-05T05:10:26.234Z,2.47
2023-03-05T05:12:53.342Z,2.77
2023-03-05T05:15:20.270Z,3.05
2023-03-05T05:17:47.477Z,2.15
2023-03-05T05:20:15.506Z,2.80
2023-03-05T05:22:42.563Z,3.58
2023-03-05T05:25:10.480Z,2.57
2023-03-05T05:27:39.233Z,3.20
2023-03-05T05:30:06.504Z,2.10
2023-03-05T05:32:33.361Z,2.05
2023-03-05T05:35:00.039Z,1.83
2023-03-05T05:37:27.444Z,1.90
2023-03-05T05:39:54.188Z,2.50
2023-03-05T05:42:23.496Z,3.28
2023-03-05T05:44:50.080Z,2.78
2023-03-05T05:47:18.079Z,2.60
2023-03-05T05:49:44.644Z,2.50
2023-03-05T05:52:11.354Z,2.75
2023-03-05T05:54:38.526Z,3.25
2023-03-05T05:57:05.321Z,3.80
2023-03-05T05:59:32.079Z,2.70
2023-03-05T06:01:59.425Z,2.70
2023-03-05T06:04:26.088Z,1.77
2023-03-05T06:06:52.654Z,2.90
2023-03-05T06:09:19.226Z,2.83
2023-03-05T06:11:45.898Z,2.03
2023-03-05T06:14:13.084Z,2.80
2023-03-05T06:16:40.154Z,2.58
2023-03-05T06:19:06.982Z,2.38
2023-03-05T06:21:33.947Z,2.03
2023-03-05T06:24:00.735Z,2.45
2023-03-05T06:26:27.356Z,2.33
2023-03-05T06:28:54.806Z,1.55
2023-03-05T06:31:25.576Z,2.38
2023-03-05T06:33:54.440Z,2.60
2023-03-05T06:36:22.723Z,2.67
2023-03-05T06:38:51.550Z,2.07
2023-03-05T06:41:22.216Z,1.77
2023-03-05T06:43:49.305Z,1.88
2023-03-05T06:46:20.304Z,2.85
2023-03-05T06:48:47.949Z,1.77
2023-03-05T06:51:35.644Z,2.73
2023-03-05T06:54:07.850Z,2.53
2023-03-05T06:56:38.556Z,2.20
2023-03-05T06:59:06.030Z,2.22
2023-03-05T07:01:32.929Z,2.63
2023-03-05T07:04:00.433Z,2.20
2023-03-05T07:06:30.354Z,6.05
2023-03-05T07:08:57.917Z,3.28
2023-03-05T07:11:25.005Z,2.40
2023-03-05T07:13:51.876Z,3.25
2023-03-05T07:16:21.579Z,2.03
2023-03-05T07:18:49.166Z,4.43
2023-03-05T07:21:19.771Z,3.58
2023-03-05T07:23:46.522Z,2.38
2023-03-05T07:26:13.850Z,1.58
2023-03-05T07:28:40.606Z,3.10
2023-03-05T07:31:11.934Z,3.55
2023-03-05T07:33:38.533Z,3.20
2023-03-05T07:36:08.806Z,2.08
2023-03-05T07:38:35.656Z,4.03
2023-03-05T07:41:07.124Z,3.67
2023-03-05T07:43:33.961Z,2.22
2023-03-05T07:46:04.855Z,4.28
2023-03-05T07:48:31.609Z,4.95
2023-03-05T07:51:03.118Z,6.22
2023-03-05T07:53:29.713Z,2.03
2023-03-05T07:55:56.310Z,3.35
2023-03-05T07:58:22.893Z,2.03
2023-03-05T08:00:49.657Z,2.47
2023-03-05T08:03:16.246Z,2.05
2023-03-05T08:05:43.103Z,2.43
2023-03-05T08:08:09.824Z,2.45
2023-03-05T08:10:37.425Z,2.95
2023-03-05T08:13:04.424Z,2.30
2023-03-05T08:15:31.705Z,2.65
2023-03-05T08:17:58.722Z,1.83
2023-03-05T08:20:25.450Z,2.05
2023-03-05T08:22:52.157Z,1.92
2023-03-05T08:25:18.823Z,4.95
2023-03-05T08:27:47.311Z,2.22
2023-03-05T08:30:17.980Z,2.17
2023-03-05T08:32:44.853Z,2.42
2023-03-05T08:35:11.703Z,3.05
2023-03-05T08:37:38.341Z,3.05
2023-03-05T08:40:05.391Z,2.13
2023-03-05T08:42:31.962Z,2.47
2023-03-05T08:44:58.590Z,2.72
2023-03-05T08:47:26.693Z,2.80
2023-03-05T08:49:57.243Z,2.67
2023-03-05T08:52:24.310Z,1.67
2023-03-05T08:54:50.845Z,3.03
2023-03-05T08:57:17.516Z,3.47
2023-03-05T08:59:44.142Z,3.47
2023-03-05T09:02:12.868Z,2.45
2023-03-05T09:04:39.775Z,2.15
2023-03-05T09:07:06.688Z,2.10
2023-03-05T09:09:34.017Z,2.10
2023-03-05T09:12:01.728Z,2.15
2023-03-05T09:14:28.735Z,2.05
2023-03-05T09:16:56.177Z,3.42
2023-03-05T09:19:22.907Z,2.27
2023-03-05T09:21:49.459Z,1.30
2023-03-05T09:24:16.043Z,2.63
2023-03-05T09:26:42.671Z,2.10
2023-03-05T09:29:10.011Z,2.38
2023-03-05T09:31:37.145Z,2.30
2023-03-05T09:34:04.958Z,1.98
2023-03-05T09:36:32.012Z,2.58
2023-03-05T09:38:59.012Z,2.05
2023-03-05T09:42:10.444Z,3.08
2023-03-05T09:44:42.695Z,2.57
2023-03-05T09:47:13.300Z,1.98
2023-03-05T09:49:57.977Z,2.78
2023-03-05T09:52:33.274Z,2.55
2023-03-05T09:54:59.904Z,2.72
2023-03-05T09:57:52.101Z,2.27
2023-03-05T10:00:46.042Z,2.58
2023-03-05T10:03:34.816Z,2.38
2023-03-05T10:06:21.796Z,1.48
2023-03-05T10:09:09.787Z,1.95
2023-03-05T10:11:55.258Z,2.20
2023-03-05T10:14:38.396Z,1.25
2023-03-05T10:17:45.274Z,1.67
2023-03-05T10:20:26.841Z,2.65
2023-03-05T10:23:25.777Z,2.08
2023-03-05T10:26:05.845Z,1.97
2023-03-05T10:28:43.189Z,1.30
2023-03-05T10:31:30.684Z,2.55
2023-03-05T10:34:03.413Z,2.58
2023-03-05T10:36:58.596Z,1.90
2023-03-05T10:39:40.383Z,1.13
2023-03-05T10:42:34.100Z,2.67
2023-03-05T10:45:13.926Z,2.47
2023-03-05T10:47:55.514Z,1.33
2023-03-05T10:50:32.221Z,3.03
2023-03-05T10:53:21.813Z,1.80
2023-03-05T10:55:50.679Z,1.58
2023-03-05T10:58:17.739Z,2.00
2023-03-05T11:01:04.644Z,2.17
2023-03-05T11:03:53.174Z,1.98
2023-03-05T11:06:32.590Z,2.50
2023-03-05T11:09:20.920Z,2.30
2023-03-05T11:12:16.751Z,1.98
2023-03-05T11:15:14.163Z,2.55
2023-03-05T11:17:44.615Z,1.55
2023-03-05T11:20:26.507Z,1.50
2023-03-05T11:23:14.122Z,2.45
2023-03-05T11:25:55.674Z,2.15
2023-03-05T11:28:33.290Z,1.70
2023-03-05T11:31:15.488Z,2.80
2023-03-05T11:33:59.899Z,3.07
2023-03-05T11:36:28.548Z,1.58
2023-03-05T11:38:59.860Z,1.92
2023-03-05T11:41:31.399Z,1.83
2023-03-05T11:44:03.707Z,1.40
2023-03-05T11:46:38.557Z,1.97
2023-03-05T11:49:07.356Z,1.70
2023-03-05T11:52:20.145Z,1.67
2023-03-05T11:55:07.208Z,1.80
2023-03-05T11:57:46.192Z,2.15
2023-03-05T12:00:16.823Z,1.73
2023-03-05T12:02:43.917Z,1.90
2023-03-05T12:05:17.344Z,2.10
2023-03-05T12:07:48.788Z,2.08
2023-03-05T12:10:22.209Z,1.50
2023-03-05T12:13:15.181Z,1.37
2023-03-05T12:15:41.884Z,2.00
2023-03-05T12:18:33.186Z,1.58
2023-03-05T12:21:23.894Z,1.95
2023-03-05T12:23:53.457Z,2.25
2023-03-05T12:26:59.540Z,2.73
2023-03-05T12:29:44.666Z,2.20
2023-03-05T12:32:25.467Z,1.85
2023-03-05T12:34:59.603Z,2.20
2023-03-05T12:37:26.128Z,1.98
2023-03-05T12:40:00.939Z,1.40
2023-03-05T12:42:30.575Z,2.00
2023-03-05T12:45:16.155Z,1.35
2023-03-05T12:47:47.525Z,2.88
2023-03-05T12:50:29.317Z,1.52
2023-03-05T12:53:14.977Z,1.60
2023-03-05T12:55:47.541Z,1.45
2023-03-05T12:58:49.455Z,2.33
2023-03-05T13:01:42.288Z,2.10
2023-03-05T13:04:17.230Z,1.90
2023-03-05T13:06:43.764Z,1.33
2023-03-05T13:09:24.409Z,1.90
2023-03-05T13:11:54.112Z,1.80
2023-03-05T13:14:32.740Z,1.63
2023-03-05T13:16:59.766Z,1.45
2023-03-05T13:19:27.510Z,2.60
2023-03-05T13:22:02.277Z,1.50
2023-03-05T13:24:29.972Z,2.03
2023-03-05T13:26:57.299Z,2.17
2023-03-05T13:29:28.238Z,2.53
2023-03-05T13:31:58.626Z,2.77
2023-03-05T13:34:47.067Z,1.88
2023-03-05T13:37:24.053Z,3.40
2023-03-05T13:40:01.936Z,1.85
2023-03-05T13:42:36.815Z,2.78
2023-03-05T13:45:32.192Z,4.13
2023-03-05T13:48:01.774Z,7.07
2023-03-05T13:50:34.315Z,3.58
2023-03-05T13:53:29.798Z,6.13
2023-03-05T13:55:58.985Z,3.55
2023-03-05T13:58:48.122Z,4.33
2023-03-05T14:01:36.919Z,5.40
2023-03-05T14:04:08.316Z,6.97
2023-03-05T14:07:01.216Z,5.22
2023-03-05T14:09:49.982Z,23.70
2023-03-05T14:12:38.360Z,18.90
2023-03-05T14:15:26.048Z,18.02
2023-03-05T14:18:07.202Z,19.38
2023-03-05T14:20:33.831Z,23.83
2023-03-05T14:23:02.154Z,22.23
2023-03-05T14:25:39.616Z,11.77
2023-03-05T14:28:18.220Z,14.43
2023-03-05T14:30:49.173Z,15.50
2023-03-05T14:33:31.832Z,10.75
2023-03-05T14:36:00.653Z,15.40
2023-03-05T14:38:31.355Z,8.73
2023-03-05T14:40:58.276Z,8.07
2023-03-05T14:43:24.803Z,7.70
2023-03-05T14:45:51.435Z,9.57
2023-03-05T14:48:21.063Z,9.48
2023-03-05T14:50:53.697Z,9.23
2023-03-05T14:53:28.023Z,7.90
2023-03-05T14:55:56.821Z,6.47
2023-03-05T14:58:27.550Z,6.10
2023-03-05T15:00:55.591Z,9.00
2023-03-05T15:03:22.727Z,6.83
2023-03-05T15:05:52.440Z,5.90
2023-03-05T15:08:27.667Z,4.45
2023-03-05T15:10:54.839Z,5.43
2023-03-05T15:13:22.002Z,4.15
2023-03-05T15:15:50.461Z,5.13
2023-03-05T15:18:19.321Z,6.55
2023-03-05T15:20:48.819Z,4.32
2023-03-05T15:23:15.883Z,5.18
2023-03-05T15:25:42.649Z,3.33
2023-03-05T15:28:09.386Z,7.07
2023-03-05T15:30:39.135Z,1.83
2023-03-05T15:33:08.643Z,4.07
2023-03-05T15:35:36.250Z,4.13
2023-03-05T15:38:02.881Z,4.45
2023-03-05T15:40:29.648Z,3.77
2023-03-05T15:42:57.736Z,2.90
2023-03-05T15:45:24.665Z,6.03
2023-03-05T15:47:52.694Z,2.42
2023-03-05T15:50:20.810Z,3.17
2023-03-05T15:52:48.012Z,3.13
2023-03-05T15:55:14.665Z,3.92
2023-03-05T15:57:44.202Z,3.53
2023-03-05T16:00:12.376Z,1.65
2023-03-05T16:02:38.961Z,3.50
2023-03-05T16:05:06.227Z,3.10
2023-03-05T16:07:36.527Z,2.92
2023-03-05T16:10:04.278Z,5.18
2023-03-05T16:12:40.857Z,2.67
2023-03-05T16:15:12.695Z,2.40
2023-03-05T16:17:43.557Z,2.00
2023-03-05T16:20:12.568Z,2.38
2023-03-05T16:22:39.162Z,2.40
2023-03-05T16:25:06.360Z,2.75
2023-03-05T16:27:32.972Z,1.95
2023-03-05T16:29:59.545Z,1.53
2023-03-05T16:32:26.429Z,2.63
2023-03-05T16:34:53.008Z,2.58
2023-03-05T16:37:22.245Z,3.95
2023-03-05T16:39:49.301Z,2.08
2023-03-05T16:42:16.631Z,3.23
2023-03-05T16:44:44.412Z,1.33
2023-03-05T16:47:12.248Z,2.13
2023-03-05T16:49:39.679Z,2.58
2023-03-05T16:52:18.391Z,2.72
2023-03-05T16:54:45.733Z,1.90
2023-03-05T16:57:12.543Z,1.77
2023-03-05T16:59:39.382Z,1.48
2023-03-05T17:02:06.375Z,0.93
2023-03-05T17:04:33.106Z,1.50
2023-03-05T17:06:59.715Z,2.07
2023-03-05T17:09:26.330Z,2.15
2023-03-05T17:11:54.015Z,1.88
2023-03-05T17:14:20.889Z,1.98
2023-03-05T17:16:47.653Z,1.73
2023-03-05T17:19:14.741Z,1.97
2023-03-05T17:21:42.547Z,1.60
2023-03-05T17:24:10.102Z,1.23
2023-03-05T17:26:36.764Z,2.17
2023-03-05T17:29:05.200Z,2.30
2023-03-05T17:31:32.232Z,0.70
2023-03-05T17:33:58.918Z,1.90
2023-03-05T17:36:25.829Z,1.63
2023-03-05T17:38:53.542Z,2.28
2023-03-05T17:41:20.885Z,2.33
2023-03-05T17:43:47.633Z,1.30
2023-03-05T17:46:15.526Z,1.40
2023-03-05T17:48:42.273Z,1.42
2023-03-05T17:51:12.174Z,1.67
2023-03-05T17:53:40.166Z,1.08
2023-03-05T17:56:09.251Z,3.77
2023-03-05T17:58:36.351Z,2.67
2023-03-05T18:01:04.619Z,2.17
2023-03-05T18:03:31.409Z,1.48
2023-03-05T18:05:58.060Z,1.67
2023-03-05T18:08:24.626Z,2.80
2023-03-05T18:10:51.236Z,2.40
2023-03-05T18:13:17.788Z,2.50
2023-03-05T18:15:47.774Z,2.15
2023-03-05T18:18:16.218Z,2.20
2023-03-05T18:20:43.268Z,1.40
2023-03-05T18:23:10.716Z,1.10
2023-03-05T18:25:37.579Z,2.60
2023-03-05T18:28:08.427Z,2.05
2023-03-05T18:30:35.430Z,1.90
2023-03-05T18:33:02.121Z,1.20
2023-03-05T18:35:29.299Z,3.13
2023-03-05T18:37:56.771Z,2.05
2023-03-05T18:40:25.626Z,2.42
2023-03-05T18:42:52.521Z,2.58
2023-03-05T18:45:21.418Z,2.20
2023-03-05T18:47:49.103Z,2.13
2023-03-05T18:50:18.754Z,2.90
2023-03-05T18:52:46.112Z,2.80
2023-03-05T18:55:16.303Z,2.55
2023-03-05T18:57:42.955Z,2.97
2023-03-05T19:00:14.436Z,2.78
2023-03-05T19:02:41.404Z,2.17
2023-03-05T19:05:08.626Z,3.35
2023-03-05T19:07:37.002Z,2.17
2023-03-05T19:10:09.896Z,1.87
2023-03-05T19:12:45.431Z,2.15
2023-03-05T19:15:13.706Z,2.38
2023-03-05T19:17:40.766Z,2.13
2023-03-05T19:20:10.487Z,2.80
2023-03-05T19:22:39.374Z,1.53
2023-03-05T19:25:06.588Z,2.15
2023-03-05T19:27:33.151Z,1.73
2023-03-05T19:30:00.319Z,1.58
2023-03-05T19:32:27.236Z,2.47
2023-03-05T19:34:58.091Z,1.93
2023-03-05T19:37:25.115Z,1.83
2023-03-05T19:39:51.734Z,1.70
2023-03-05T19:42:18.513Z,2.30
2023-03-05T19:44:45.260Z,2.03
2023-03-05T19:47:11.965Z,1.80
2023-03-05T19:49:38.613Z,3.15
2023-03-05T19:52:06.258Z,2.80
2023-03-05T19:54:33.304Z,2.03
2023-03-05T19:57:00.246Z,1.88
2023-03-05T19:59:26.951Z,1.67
2023-03-05T20:01:53.602Z,2.00
2023-03-05T20:04:22.822Z,1.48
2023-03-05T20:06:49.554Z,2.10
2023-03-05T20:09:16.572Z,2.50
2023-03-05T20:11:43.486Z,3.57
2023-03-05T20:14:10.456Z,5.38
2023-03-05T20:16:38.044Z,3.50
2023-03-05T20:19:06.403Z,4.95
2023-03-05T20:21:36.184Z,1.60
2023-03-05T20:24:07.860Z,3.20
2023-03-05T20:26:37.795Z,1.58
2023-03-05T20:29:05.086Z,2.78
2023-03-05T20:31:37.028Z,3.80
2023-03-05T20:34:09.412Z,1.88
2023-03-05T20:36:36.109Z,4.50
2023-03-05T20:39:04.162Z,2.10
2023-03-05T20:41:31.782Z,2.15
2023-03-05T20:43:58.359Z,3.15
2023-03-05T20:46:31.000Z,2.80
2023-03-05T20:48:59.981Z,2.90
2023-03-05T20:51:48.475Z,1.80
2023-03-05T20:54:15.149Z,2.63
2023-03-05T20:56:41.922Z,1.85
2023-03-05T20:59:09.112Z,3.20
2023-03-05T21:01:37.736Z,1.87
2023-03-05T21:04:04.816Z,2.55
2023-03-05T21:06:32.524Z,1.58
2023-03-05T21:09:00.106Z,1.83
2023-03-05T21:11:27.553Z,2.10
2023-03-05T21:13:54.238Z,2.10
2023-03-05T21:16:26.242Z,2.00
2023-03-05T21:18:53.901Z,2.70
2023-03-05T21:21:20.466Z,2.20
2023-03-05T21:23:47.577Z,2.22
2023-03-05T21:26:15.162Z,2.23
2023-03-05T21:28:42.507Z,2.22
2023-03-05T21:31:14.217Z,1.63
2023-03-05T21:33:42.136Z,2.38
2023-03-05T21:36:08.918Z,1.90
2023-03-05T21:38:35.730Z,1.67
2023-03-05T21:41:03.822Z,2.17
2023-03-05T21:43:31.592Z,1.83
2023-03-05T21:46:00.722Z,1.90
2023-03-05T21:48:27.440Z,1.17
2023-03-05T21:50:55.187Z,3.00
2023-03-05T21:53:21.905Z,1.60
2023-03-05T21:56:22.068Z,1.73
2023-03-05T21:58:48.914Z,2.92
2023-03-05T22:01:18.353Z,1.95
2023-03-05T22:03:46.124Z,2.47
2023-03-05T22:06:14.666Z,1.90
2023-03-05T22:08:41.394Z,3.05
2023-03-05T22:11:15.386Z,1.83
2023-03-05T22:13:42.983Z,1.05
2023-03-05T22:16:10.493Z,1.47
2023-03-05T22:18:37.412Z,2.30
2023-03-05T22:21:05.389Z,1.67
2023-03-05T22:23:36.881Z,1.95
2023-03-05T22:26:07.643Z,1.50
2023-03-05T22:28:36.207Z,1.93
2023-03-05T22:31:02.863Z,2.08
2023-03-05T22:33:30.010Z,2.08
2023-03-05T22:35:56.938Z,1.50
2023-03-05T22:38:25.241Z,1.60
2023-03-05T22:40:51.914Z,1.63
2023-03-05T22:43:19.803Z,1.95
2023-03-05T22:45:46.418Z,1.80
2023-03-05T22:48:13.324Z,1.52
2023-03-05T22:50:41.484Z,1.48
2023-03-05T22:53:08.659Z,2.27
2023-03-05T22:55:38.625Z,1.90
2023-03-05T22:58:05.162Z,2.67
2023-03-05T23:00:31.978Z,2.72
2023-03-05T23:02:58.545Z,1.98
2023-03-05T23:05:25.088Z,1.60
2023-03-05T23:07:51.643Z,1.70
2023-03-05T23:10:26.431Z,1.60
2023-03-05T23:12:54.901Z,1.95
2023-03-05T23:15:34.991Z,3.15
2023-03-05T23:18:01.918Z,2.73
2023-03-05T23:20:34.607Z,1.85
2023-03-05T23:23:02.166Z,1.23
2023-03-05T23:25:31.254Z,1.38
2023-03-05T23:27:59.050Z,1.88
2023-03-05T23:30:34.557Z,1.13
2023-03-05T23:33:04.111Z,1.75
2023-03-05T23:35:38.689Z,1.92
2023-03-05T23:38:08.213Z,1.90
2023-03-05T23:40:37.954Z,1.58
2023-03-05T23:43:04.753Z,1.40
2023-03-05T23:45:31.744Z,1.83
2023-03-05T23:47:58.542Z,1.40
2023-03-05T23:50:31.089Z,1.63
2023-03-05T23:53:01.662Z,1.13
2023-03-05T23:55:39.958Z,1.63
2023-03-05T23:58:07.164Z,1.42
